Time;durP1;ratioP1;P1;durP2;ratioP2;P2;SDS_P1;SDS_P2;PMS_P1;PMS_P2;Temp;Humidity;BMP_temperature;BMP_pressure;BME280_temperature;BME280_humidity;BME280_pressure;Samples;Min_cycle;Max_cycle;Signal;HPM_P1;HPM_P2
2022/06/22 00:01:13;;;;;;;16.27;9.77;;;10.40;99.90;;;;;;5071170;28;20052;-76
2022/06/22 00:03:41;;;;;;;11.18;8.45;;;10.40;99.90;;;;;;5070962;28;20156;-76
2022/06/22 00:06:16;;;;;;;9.77;7.03;;;10.20;99.90;;;;;;5070794;28;20403;-76
2022/06/22 00:08:46;;;;;;;8.65;6.47;;;10.20;99.90;;;;;;5070581;28;20045;-76
2022/06/22 00:11:15;;;;;;;9.55;6.82;;;10.30;99.90;;;;;;5052553;28;20059;-76
2022/06/22 00:13:54;;;;;;;10.18;7.45;;;10.40;99.90;;;;;;5070446;28;20048;-76
2022/06/22 00:16:33;;;;;;;10.30;7.18;;;10.10;99.90;;;;;;5070837;28;20041;-76
2022/06/22 00:18:59;;;;;;;10.57;8.23;;;10.00;99.90;;;;;;5052425;28;20553;-76
2022/06/22 00:21:35;;;;;;;10.88;8.05;;;10.10;99.90;;;;;;5070419;28;20048;-76
2022/06/22 00:24:04;;;;;;;8.90;6.88;;;10.00;99.90;;;;;;5052634;28;20040;-76
2022/06/22 00:26:35;;;;;;;9.98;7.90;;;10.00;99.90;;;;;;5070631;28;20094;-76
2022/06/22 00:29:10;;;;;;;9.68;7.22;;;10.00;99.90;;;;;;5070176;28;20040;-76
2022/06/22 00:31:38;;;;;;;;;;;9.90;99.90;;;;;;5070738;28;20766;-76
2022/06/22 00:34:10;;;;;;;8.27;7.03;;;9.80;99.90;;;;;;5070282;28;19928;-76
2022/06/22 00:37:03;;;;;;;7.45;5.85;;;9.70;99.90;;;;;;5070631;28;20403;-75
2022/06/22 00:39:29;;;;;;;9.18;6.60;;;9.70;99.90;;;;;;5052459;28;20111;-76
2022/06/22 00:42:16;;;;;;;10.48;7.85;;;9.60;99.90;;;;;;5052224;28;20064;-76
2022/06/22 00:45:03;;;;;;;8.63;5.80;;;9.50;99.90;;;;;;5069907;28;20136;-75
2022/06/22 00:47:39;;;;;;;8.73;6.20;;;9.50;99.90;;;;;;5052342;28;20048;-76
2022/06/22 00:50:16;;;;;;;8.48;6.53;;;9.50;99.90;;;;;;5072804;28;20131;-76
2022/06/22 00:52:47;;;;;;;8.80;6.70;;;9.50;99.90;;;;;;5056256;28;20449;-75
2022/06/22 00:55:54;;;;;;;7.55;6.03;;;9.40;99.90;;;;;;5074320;28;20506;-76
2022/06/22 00:58:34;;;;;;;8.38;6.05;;;9.40;99.90;;;;;;5011919;28;20061;-75
2022/06/22 01:01:04;;;;;;;7.25;5.60;;;9.40;99.90;;;;;;5011661;28;20088;-76
2022/06/22 01:03:39;;;;;;;9.25;6.88;;;9.40;99.90;;;;;;5012020;28;20145;-76
2022/06/22 01:06:13;;;;;;;;;;;9.30;99.90;;;;;;5012434;28;20095;-76
2022/06/22 01:09:34;;;;;;;8.70;7.13;;;9.30;99.90;;;;;;5011855;28;19925;-77
2022/06/22 01:12:17;;;;;;;6.85;6.05;;;9.20;99.90;;;;;;4984213;28;20761;-76
2022/06/22 01:15:01;;;;;;;7.20;5.32;;;9.20;99.90;;;;;;4992069;28;20137;-76
2022/06/22 01:17:50;;;;;;;6.43;5.10;;;9.20;99.90;;;;;;4991987;28;20042;-76
2022/06/22 01:20:35;;;;;;;5.88;5.28;;;9.10;99.90;;;;;;4991940;28;20058;-77
2022/06/22 01:23:26;;;;;;;6.97;5.68;;;9.00;99.90;;;;;;4992364;28;20086;-77
2022/06/22 01:26:03;;;;;;;5.20;4.10;;;9.00;99.90;;;;;;4992164;28;20069;-77
2022/06/22 01:28:29;;;;;;;8.70;5.57;;;8.90;99.90;;;;;;4975754;28;20051;-75
2022/06/22 01:31:03;;;;;;;5.68;4.30;;;8.90;99.90;;;;;;4991792;28;20101;-76
2022/06/22 01:33:39;;;;;;;6.43;5.15;;;8.90;99.90;;;;;;5006148;28;20516;-76
2022/06/22 01:36:32;;;;;;;8.43;5.68;;;8.90;99.90;;;;;;5015782;28;20056;-76
2022/06/22 01:38:58;;;;;;;7.78;4.90;;;8.90;99.90;;;;;;5019766;28;20488;-76
2022/06/22 01:41:43;;;;;;;7.05;4.65;;;8.80;99.90;;;;;;5030862;28;20053;-76
2022/06/22 01:44:46;;;;;;;3.38;2.60;;;8.80;99.90;;;;;;5030953;28;20152;-76
2022/06/22 01:47:23;;;;;;;4.32;3.08;;;8.70;99.90;;;;;;5072815;28;20053;-76
2022/06/22 01:50:10;;;;;;;27.38;4.90;;;8.70;99.90;;;;;;5073648;28;20132;-76
2022/06/22 01:52:58;;;;;;;7.68;4.05;;;8.60;99.90;;;;;;5073182;28;20052;-76
2022/06/22 01:55:38;;;;;;;5.90;3.47;;;8.50;99.90;;;;;;5073112;28;20479;-76
2022/06/22 01:58:29;;;;;;;5.18;3.53;;;8.50;99.90;;;;;;5072996;28;20060;-76
2022/06/22 02:01:06;;;;;;;5.88;4.00;;;8.50;99.90;;;;;;5072543;28;20506;-77
2022/06/22 02:03:54;;;;;;;4.72;3.60;;;8.50;99.90;;;;;;5073115;28;20056;-77
2022/06/22 02:09:36;;;;;;;6.63;4.70;;;8.50;99.90;;;;;;5010819;28;20521;-77
2022/06/22 02:12:20;;;;;;;6.18;4.53;;;8.40;99.90;;;;;;4978234;28;20125;-77
2022/06/22 02:14:56;;;;;;;7.18;4.72;;;8.30;99.90;;;;;;4994434;28;20053;-77
2022/06/22 02:17:27;;;;;;;7.15;4.43;;;8.30;99.90;;;;;;5010313;28;20472;-77
2022/06/22 02:20:25;;;;;;;8.35;4.40;;;8.30;99.90;;;;;;5010534;28;20497;-77
2022/06/22 02:22:54;;;;;;;5.35;3.58;;;8.30;99.90;;;;;;5010435;28;20057;-77
2022/06/22 02:25:21;;;;;;;5.43;3.45;;;8.20;99.90;;;;;;5010487;28;20046;-77
2022/06/22 02:27:47;;;;;;;5.88;3.75;;;8.20;99.90;;;;;;4994117;28;20061;-77
2022/06/22 02:30:12;;;;;;;6.20;4.57;;;8.20;99.90;;;;;;5010388;28;20046;-76
2022/06/22 02:32:42;;;;;;;5.63;4.07;;;8.30;99.90;;;;;;5009977;28;20058;-77
2022/06/22 02:35:10;;;;;;;5.72;4.35;;;8.20;99.90;;;;;;5010169;28;20057;-77
2022/06/22 02:37:46;;;;;;;6.72;3.28;;;8.10;99.90;;;;;;5010345;28;20460;-77
2022/06/22 02:40:31;;;;;;;5.03;3.58;;;8.20;99.90;;;;;;5009994;28;20046;-77
2022/06/22 02:45:43;;;;;;;5.70;4.13;;;8.10;99.90;;;;;;4970914;28;20058;-77
2022/06/22 02:48:12;;;;;;;8.65;4.57;;;8.10;99.90;;;;;;4970588;28;20063;-77
2022/06/22 02:50:51;;;;;;;8.43;4.63;;;8.30;99.90;;;;;;4970745;28;20058;-77
2022/06/22 02:53:28;;;;;;;4.97;3.65;;;8.10;99.90;;;;;;4970875;28;20062;-77
2022/06/22 02:55:55;;;;;;;4.40;3.17;;;8.10;99.90;;;;;;4971044;28;20062;-77
2022/06/22 02:58:30;;;;;;;5.43;3.67;;;8.00;99.90;;;;;;4971094;28;20050;-77
2022/06/22 03:01:12;;;;;;;6.00;4.10;;;8.00;99.90;;;;;;4970775;28;20051;-76
2022/06/22 03:03:52;;;;;;;5.45;4.63;;;8.00;99.90;;;;;;4970554;28;20072;-76
2022/06/22 03:06:22;;;;;;;6.72;4.22;;;8.00;99.90;;;;;;4954686;28;20522;-77
2022/06/22 03:08:49;;;;;;;6.22;4.53;;;7.90;99.90;;;;;;4970717;28;20058;-77
2022/06/22 03:11:15;;;;;;;4.95;3.75;;;7.90;99.90;;;;;;4970169;28;20504;-77
2022/06/22 03:13:56;;;;;;;5.78;4.18;;;7.90;99.90;;;;;;4970036;28;20506;-77
2022/06/22 03:16:25;;;;;;;5.03;3.53;;;7.90;99.90;;;;;;4970559;28;20047;-77
2022/06/22 03:18:52;;;;;;;6.30;4.55;;;7.80;99.90;;;;;;4970356;28;20110;-77
2022/06/22 03:21:18;;;;;;;5.60;4.28;;;7.80;99.90;;;;;;4970293;28;20047;-78
2022/06/22 03:23:57;;;;;;;8.10;4.68;;;7.80;99.90;;;;;;5050762;28;20057;-78
2022/06/22 03:26:33;;;;;;;5.78;4.75;;;7.80;99.90;;;;;;5071584;28;20399;-77
2022/06/22 03:29:07;;;;;;;6.55;3.00;;;7.90;99.90;;;;;;5071496;28;20044;-78
2022/06/22 03:31:46;;;;;;;7.33;3.63;;;7.80;99.90;;;;;;5053391;28;20441;-78
2022/06/22 03:34:19;;;;;;;4.25;3.20;;;7.80;99.90;;;;;;5071296;28;20514;-77
2022/06/22 03:36:50;;;;;;;9.20;4.13;;;7.80;99.90;;;;;;5036412;28;20036;-78
2022/06/22 03:39:20;;;;;;;5.88;4.13;;;7.80;99.90;;;;;;5053472;28;20526;-78
2022/06/22 03:41:55;;;;;;;8.75;4.80;;;7.80;99.90;;;;;;5071029;28;20068;-78
2022/06/22 03:44:29;;;;;;;7.50;5.30;;;8.10;99.90;;;;;;5071316;28;20795;-77
2022/06/22 03:47:02;;;;;;;11.57;6.35;;;7.90;99.90;;;;;;5035761;28;20131;-77
2022/06/22 03:49:53;;;;;;;7.35;5.97;;;7.90;99.90;;;;;;5053166;28;20044;-77
2022/06/22 03:52:26;;;;;;;15.40;7.38;;;7.90;99.90;;;;;;5070518;28;20052;-77
2022/06/22 03:55:06;;;;;;;10.02;7.35;;;8.00;99.90;;;;;;5071147;28;20048;-77
2022/06/22 03:57:43;;;;;;;15.32;6.75;;;8.00;99.90;;;;;;5071075;28;20163;-76
2022/06/22 04:00:11;;;;;;;13.13;8.38;;;8.00;99.90;;;;;;5070915;28;20048;-76
2022/06/22 04:02:36;;;;;;;14.15;8.23;;;8.00;99.90;;;;;;5070931;28;20048;-76
2022/06/22 04:05:03;;;;;;;12.57;8.50;;;8.00;99.90;;;;;;5070905;28;20043;-76
2022/06/22 04:07:35;;;;;;;14.73;10.02;;;8.00;99.90;;;;;;5070354;28;20506;-76
2022/06/22 04:10:03;;;;;;;15.57;9.10;;;8.10;99.90;;;;;;5070569;28;20048;-77
2022/06/22 04:12:41;;;;;;;13.23;8.20;;;8.10;99.90;;;;;;5070439;28;20092;-76
2022/06/22 04:15:29;;;;;;;11.68;8.02;;;8.10;99.90;;;;;;5070757;28;20052;-77
2022/06/22 04:18:00;;;;;;;11.20;8.23;;;8.10;99.90;;;;;;5052889;28;20080;-77
2022/06/22 04:21:04;;;;;;;11.07;8.55;;;8.20;99.90;;;;;;5070787;28;20148;-76
2022/06/22 04:23:56;;;;;;;14.68;8.65;;;8.20;99.90;;;;;;5070189;28;20123;-76
2022/06/22 04:26:32;;;;;;;12.07;7.78;;;8.30;99.90;;;;;;5070114;28;20103;-76
2022/06/22 04:29:12;;;;;;;10.27;7.65;;;8.30;99.90;;;;;;5070303;28;20064;-77
2022/06/22 04:31:46;;;;;;;16.75;8.23;;;8.40;99.90;;;;;;5052575;28;20058;-77
2022/06/22 04:34:18;;;;;;;12.80;7.77;;;8.40;99.90;;;;;;5070652;28;20123;-77
2022/06/22 04:36:52;;;;;;;12.05;8.35;;;8.60;99.90;;;;;;5070293;28;20055;-76
2022/06/22 04:39:51;;;;;;;15.85;9.05;;;8.60;99.90;;;;;;5070477;28;20098;-77
2022/06/22 04:42:16;;;;;;;16.67;9.20;;;8.70;99.90;;;;;;5035561;28;20830;-77
2022/06/22 04:44:50;;;;;;;12.55;9.13;;;8.80;99.90;;;;;;5070453;28;20045;-77
2022/06/22 04:47:25;;;;;;;16.05;10.50;;;8.90;99.90;;;;;;5070319;28;20044;-76
2022/06/22 04:49:55;;;;;;;11.73;9.00;;;9.10;99.90;;;;;;5052441;28;20072;-77
2022/06/22 04:52:42;;;;;;;11.60;8.73;;;9.10;99.90;;;;;;5069811;28;20398;-77
2022/06/22 04:55:16;;;;;;;21.20;9.27;;;9.20;99.90;;;;;;5070394;28;20041;-77
2022/06/22 04:57:43;;;;;;;17.52;10.27;;;9.30;99.90;;;;;;5070507;28;20456;-77
2022/06/22 05:00:17;;;;;;;19.45;10.68;;;9.40;99.90;;;;;;5070375;28;20041;-77
2022/06/22 05:02:45;;;;;;;22.25;11.25;;;9.60;99.90;;;;;;5070296;28;20033;-77
2022/06/22 05:05:24;;;;;;;19.00;12.27;;;9.70;99.90;;;;;;5070506;28;20046;-77
2022/06/22 05:08:05;;;;;;;23.30;14.75;;;9.90;99.90;;;;;;5070202;28;20571;-76
2022/06/22 05:10:52;;;;;;;22.15;13.40;;;10.10;99.90;;;;;;5052011;28;20036;-76
2022/06/22 05:13:23;;;;;;;22.65;13.65;;;10.20;99.90;;;;;;5070077;28;20131;-76
2022/06/22 05:15:53;;;;;;;25.30;15.15;;;10.40;99.90;;;;;;5069995;28;20056;-76
2022/06/22 05:18:29;;;;;;;23.20;14.77;;;10.60;99.90;;;;;;5070239;28;20048;-76
2022/06/22 05:21:11;;;;;;;26.25;15.57;;;10.80;99.90;;;;;;5070170;28;20048;-76
2022/06/22 05:23:37;;;;;;;27.88;16.45;;;10.90;99.90;;;;;;5069472;28;20044;-75
2022/06/22 05:26:07;;;;;;;24.95;15.38;;;11.10;99.90;;;;;;5069723;28;20052;-75
2022/06/22 05:28:36;;;;;;;27.13;15.48;;;11.40;99.90;;;;;;5051652;28;20060;-75
2022/06/22 05:31:04;;;;;;;22.80;14.73;;;11.40;99.90;;;;;;5069901;28;20086;-75
2022/06/22 05:33:30;;;;;;;36.20;19.38;;;11.60;99.90;;;;;;5052158;28;20053;-76
2022/06/22 05:36:05;;;;;;;24.67;16.42;;;11.80;99.90;;;;;;5072092;28;20052;-75
2022/06/22 05:38:32;;;;;;;;;;;12.00;99.90;;;;;;5073421;28;20489;-75
2022/06/22 05:41:04;;;;;;;21.20;14.68;;;12.20;99.90;;;;;;5055329;28;19924;-75
2022/06/22 05:43:31;;;;;;;18.98;14.38;;;12.30;99.90;;;;;;5073535;28;20056;-75
2022/06/22 05:46:02;;;;;;;24.13;15.02;;;12.50;99.90;;;;;;5073499;28;20040;-75
2022/06/22 05:48:30;;;;;;;21.67;14.70;;;12.70;99.90;;;;;;5073446;28;20052;-75
2022/06/22 05:51:01;;;;;;;21.05;13.68;;;12.80;99.90;;;;;;5073504;28;20368;-75
2022/06/22 05:53:54;;;;;;;20.35;14.02;;;13.00;99.90;;;;;;5073504;28;20064;-75
2022/06/22 05:56:33;;;;;;;19.50;14.60;;;13.10;99.90;;;;;;5038539;28;20123;-76
2022/06/22 05:59:06;;;;;;;18.48;13.13;;;13.30;99.90;;;;;;5055263;28;20048;-76
2022/06/22 06:02:13;;;;;;;19.92;12.68;;;13.60;99.90;;;;;;5073074;28;20060;-76
2022/06/22 06:04:48;;;;;;;20.83;12.40;;;13.70;99.90;;;;;;5055296;28;20052;-76
2022/06/22 06:07:24;;;;;;;23.27;12.85;;;13.90;99.90;;;;;;5072833;28;20051;-75
2022/06/22 06:09:50;;;;;;;19.33;10.80;;;14.10;99.90;;;;;;5072467;28;20071;-75
2022/06/22 06:12:22;;;;;;;16.80;10.57;;;14.20;99.90;;;;;;5072747;28;20044;-76
2022/06/22 06:14:52;;;;;;;17.33;9.45;;;14.50;99.90;;;;;;5072824;28;20413;-75
2022/06/22 06:17:34;;;;;;;17.50;9.18;;;14.60;99.90;;;;;;5072895;28;20121;-76
2022/06/22 06:20:00;;;;;;;15.00;8.82;;;14.80;99.90;;;;;;5072427;28;20040;-76
2022/06/22 06:22:29;;;;;;;18.63;8.40;;;15.30;99.90;;;;;;5072705;28;20045;-76
2022/06/22 06:27:54;;;;;;;15.32;7.22;;;15.30;99.90;;;;;;5054540;28;20053;-76
2022/06/22 06:30:50;;;;;;;17.08;7.38;;;15.40;99.90;;;;;;5072472;28;20040;-77
2022/06/22 06:33:23;;;;;;;12.77;6.75;;;15.70;99.90;;;;;;5010018;28;20431;-77
2022/06/22 06:35:53;;;;;;;12.65;4.40;;;16.00;99.90;;;;;;4993682;28;20085;-77
2022/06/22 06:38:50;;;;;;;7.50;3.63;;;16.20;99.90;;;;;;5010097;28;20085;-77
2022/06/22 06:41:38;;;;;;;9.32;3.75;;;16.50;99.90;;;;;;5009477;28;20176;-77
2022/06/22 06:44:25;;;;;;;7.80;3.20;;;16.80;99.90;;;;;;5010040;28;20065;-77
2022/06/22 06:47:15;;;;;;;12.85;4.03;;;17.10;99.90;;;;;;5008946;28;20121;-76
2022/06/22 06:49:52;;;;;;;13.93;3.00;;;17.70;99.90;;;;;;5010052;28;20058;-78
2022/06/22 06:52:18;;;;;;;12.80;4.15;;;17.70;99.90;;;;;;5010183;28;20081;-76
2022/06/22 06:55:05;;;;;;;7.38;3.08;;;17.80;99.90;;;;;;5010325;28;20088;-76
2022/06/22 06:57:32;;;;;;;8.80;3.03;;;18.00;99.90;;;;;;5009826;28;20064;-77
2022/06/22 07:00:03;;;;;;;12.27;4.10;;;18.30;99.90;;;;;;5010211;28;20045;-76
2022/06/22 07:02:32;;;;;;;8.38;2.83;;;18.70;99.90;;;;;;5009505;28;20062;-76
2022/06/22 07:05:00;;;;;;;10.60;3.63;;;18.90;99.90;;;;;;5010156;28;20045;-77
2022/06/22 07:07:39;;;;;;;7.38;2.72;;;19.10;99.90;;;;;;5009558;28;20138;-76
2022/06/22 07:10:23;;;;;;;6.95;2.95;;;19.50;99.90;;;;;;5040388;28;20161;-77
2022/06/22 07:13:05;;;;;;;13.32;3.28;;;19.40;99.90;;;;;;5052626;28;20502;-77
2022/06/22 07:15:35;;;;;;;10.18;3.40;;;19.70;99.90;;;;;;5053320;28;20045;-76
2022/06/22 07:18:09;;;;;;;9.80;3.20;;;19.80;99.90;;;;;;5071581;28;20047;-77
2022/06/22 07:20:42;;;;;;;14.05;3.30;;;19.90;99.90;;;;;;5071680;28;20045;-77
2022/06/22 07:23:37;;;;;;;6.95;2.67;;;20.20;99.90;;;;;;5053374;28;20503;-77
2022/06/22 07:26:15;;;;;;;6.55;2.30;;;20.40;99.90;;;;;;5071754;28;20044;-76
2022/06/22 07:28:49;;;;;;;7.63;2.50;;;20.70;99.90;;;;;;5053265;28;20059;-77
2022/06/22 07:31:26;;;;;;;9.20;2.17;;;20.90;99.90;;;;;;5070901;28;20083;-76
2022/06/22 07:34:05;;;;;;;11.48;2.50;;;21.10;99.90;;;;;;5071250;28;20068;-76
2022/06/22 07:36:33;;;;;;;6.97;2.80;;;21.40;99.90;;;;;;5071239;28;20048;-76
2022/06/22 07:39:05;;;;;;;7.70;3.10;;;21.40;99.90;;;;;;5071394;28;20102;-77
2022/06/22 07:41:32;;;;;;;9.50;3.47;;;21.50;99.90;;;;;;5070969;28;20056;-77
2022/06/22 07:44:36;;;;;;;9.38;3.20;;;21.70;99.90;;;;;;5070841;28;20087;-78
2022/06/22 07:47:23;;;;;;;10.93;3.53;;;21.80;99.90;;;;;;5070991;28;20131;-77
2022/06/22 07:50:01;;;;;;;9.95;4.00;;;22.00;99.90;;;;;;5070994;28;20044;-77
2022/06/22 07:52:45;;;;;;;12.93;3.55;;;22.20;99.90;;;;;;5071064;28;20040;-77
2022/06/22 07:55:35;;;;;;;8.80;3.50;;;22.10;99.90;;;;;;5052999;28;20041;-77
2022/06/22 07:58:17;;;;;;;13.70;3.20;;;22.30;99.90;;;;;;5070305;28;20042;-77
2022/06/22 08:00:45;;;;;;;13.65;3.97;;;22.50;99.90;;;;;;5070734;28;20084;-76
2022/06/22 08:03:26;;;;;;;10.05;3.45;;;22.70;99.90;;;;;;5070628;28;20048;-78
2022/06/22 08:05:56;;;;;;;14.02;3.38;;;22.60;99.90;;;;;;5070716;28;20488;-76
2022/06/22 08:08:30;;;;;;;7.28;3.20;;;22.90;99.90;;;;;;5071055;28;20510;-78
2022/06/22 08:11:14;;;;;;;9.23;3.20;;;23.00;99.90;;;;;;5071063;28;20505;-77
2022/06/22 08:13:50;;;;;;;8.05;2.95;;;23.20;99.90;;;;;;5070348;28;20048;-76
2022/06/22 08:16:36;;;;;;;9.55;3.25;;;23.20;99.90;;;;;;5071074;28;20047;-76
2022/06/22 08:19:03;;;;;;;7.15;2.80;;;23.30;99.90;;;;;;5070261;28;20052;-77
2022/06/22 08:21:29;;;;;;;10.00;2.92;;;23.40;99.90;;;;;;5070626;28;20066;-77
2022/06/22 08:23:57;;;;;;;6.03;2.47;;;23.50;99.90;;;;;;5070711;28;20044;-77
2022/06/22 08:26:32;;;;;;;5.57;2.20;;;23.50;99.90;;;;;;5052223;28;20578;-76
2022/06/22 08:28:59;;;;;;;9.68;2.95;;;23.80;99.90;;;;;;5070432;28;20129;-77
2022/06/22 08:31:38;;;;;;;10.60;3.20;;;23.70;99.90;;;;;;5070306;28;20037;-77
2022/06/22 08:34:08;;;;;;;10.73;3.25;;;23.50;99.40;;;;;;5070586;28;20056;-77
2022/06/22 08:36:39;;;;;;;11.23;3.60;;;23.60;99.90;;;;;;5070467;28;20055;-76
2022/06/22 08:39:57;;;;;;;12.60;3.35;;;23.80;99.90;;;;;;5070469;28;20044;-77
2022/06/22 08:42:31;;;;;;;11.82;3.80;;;23.80;99.90;;;;;;4988606;28;20497;-76
2022/06/22 08:45:38;;;;;;;10.27;3.30;;;24.00;99.90;;;;;;4988726;28;20077;-76
2022/06/22 08:48:35;;;;;;;9.88;3.20;;;24.00;99.90;;;;;;4980871;28;20086;-77
2022/06/22 08:51:17;;;;;;;8.20;3.22;;;24.00;99.90;;;;;;4988797;28;20058;-76
2022/06/22 08:53:58;;;;;;;9.60;3.25;;;24.10;99.50;;;;;;4988790;28;20525;-76
2022/06/22 08:56:54;;;;;;;9.77;3.38;;;24.20;98.80;;;;;;4988874;28;20070;-75
2022/06/22 08:59:31;;;;;;;6.72;2.83;;;24.20;99.00;;;;;;4988573;28;20061;-75
2022/06/22 09:02:34;;;;;;;8.35;2.60;;;24.20;99.80;;;;;;4988383;28;20086;-76
2022/06/22 09:05:08;;;;;;;11.75;3.83;;;24.20;99.50;;;;;;4988527;28;20069;-74
2022/06/22 09:07:39;;;;;;;;;;;24.50;99.10;;;;;;4988962;28;20054;-77
2022/06/22 09:10:24;;;;;;;7.30;3.20;;;24.30;98.60;;;;;;4989172;28;20053;-77
2022/06/22 09:12:55;;;;;;;;;;;24.40;98.20;;;;;;4992520;28;20413;-75
2022/06/22 09:16:05;;;;;;;9.73;3.50;;;24.30;99.00;;;;;;4991818;28;20408;-76
2022/06/22 09:18:44;;;;;;;7.22;3.22;;;24.70;99.50;;;;;;4966651;28;20051;-76
2022/06/22 09:21:48;;;;;;;8.98;3.92;;;24.60;99.30;;;;;;4972534;28;20054;-76
2022/06/22 09:24:26;;;;;;;10.25;4.10;;;24.70;98.90;;;;;;4972543;28;20058;-76
2022/06/22 09:27:03;;;;;;;8.85;3.85;;;25.00;99.20;;;;;;4972586;28;20110;-74
2022/06/22 09:30:06;;;;;;;8.55;3.42;;;25.00;99.20;;;;;;4972550;28;20054;-75
2022/06/22 09:32:57;;;;;;;7.07;3.22;;;24.70;98.00;;;;;;4972061;28;20740;-76
2022/06/22 09:35:26;;;;;;;9.15;4.15;;;24.90;98.80;;;;;;4972165;28;20094;-76
2022/06/22 09:38:13;;;;;;;10.05;4.30;;;25.00;98.50;;;;;;4972055;28;20059;-75
2022/06/22 09:41:04;;;;;;;7.38;3.60;;;25.10;98.20;;;;;;4972145;28;20109;-76
2022/06/22 09:43:41;;;;;;;7.80;3.25;;;24.90;98.20;;;;;;4972273;28;20429;-76
2022/06/22 09:46:15;;;;;;;10.85;3.63;;;25.30;98.70;;;;;;4972269;28;20066;-78
2022/06/22 09:48:59;;;;;;;8.63;3.10;;;25.30;98.40;;;;;;4972062;28;20050;-77
2022/06/22 09:51:52;;;;;;;7.05;2.85;;;25.30;97.60;;;;;;4971918;28;20141;-78
2022/06/22 09:58:21;;;;;;;8.52;3.45;;;25.30;96.80;;;;;;4972079;28;20410;-75
2022/06/22 10:00:52;;;;;;;10.02;3.50;;;25.50;97.90;;;;;;4972049;28;20046;-75
2022/06/22 10:03:45;;;;;;;9.77;3.72;;;25.30;97.50;;;;;;4971567;28;20068;-76
2022/06/22 10:06:14;;;;;;;5.00;2.50;;;25.50;97.10;;;;;;4955646;28;20046;-76
2022/06/22 10:09:04;;;;;;;10.55;3.15;;;25.70;96.30;;;;;;4971896;28;20470;-76
2022/06/22 10:11:58;;;;;;;10.10;3.30;;;25.80;96.30;;;;;;4971919;28;20074;-75
2022/06/22 10:14:41;;;;;;;7.90;2.17;;;25.90;95.60;;;;;;4971939;28;20564;-76
2022/06/22 10:17:12;;;;;;;9.40;3.30;;;26.00;95.20;;;;;;4971932;28;20047;-76
2022/06/22 10:20:08;;;;;;;6.35;2.65;;;25.90;94.90;;;;;;4971952;28;20046;-75
2022/06/22 10:23:03;;;;;;;11.25;2.97;;;25.80;94.30;;;;;;4971531;28;20058;-75
2022/06/22 10:25:59;;;;;;;6.32;2.03;;;25.90;93.80;;;;;;4972121;28;20047;-76
2022/06/22 10:28:39;;;;;;;7.60;3.00;;;25.90;93.50;;;;;;4934148;28;20096;-75
2022/06/22 10:31:17;;;;;;;7.72;2.28;;;25.80;94.40;;;;;;4971749;28;20054;-73
2022/06/22 10:34:09;;;;;;;5.75;2.20;;;26.00;93.20;;;;;;4971137;28;20102;-76
2022/06/22 10:37:03;;;;;;;7.28;2.53;;;26.00;94.40;;;;;;4955506;28;20058;-76
2022/06/22 10:39:28;;;;;;;6.15;2.38;;;26.10;94.10;;;;;;4955315;28;20534;-75
2022/06/22 10:45:12;;;;;;;8.02;2.55;;;26.00;92.80;;;;;;4952000;28;20138;-77
2022/06/22 10:47:52;;;;;;;8.13;2.60;;;25.90;94.60;;;;;;4951746;29;20110;-76
2022/06/22 10:50:34;;;;;;;9.25;2.80;;;26.00;93.60;;;;;;4951614;29;20098;-75
2022/06/22 10:53:10;;;;;;;8.40;3.08;;;25.90;92.80;;;;;;4951712;29;20085;-76
2022/06/22 10:55:44;;;;;;;9.10;3.55;;;25.90;95.20;;;;;;4935662;29;20059;-77
2022/06/22 10:58:42;;;;;;;7.35;3.00;;;26.10;95.30;;;;;;4935778;29;20090;-77
2022/06/22 11:01:54;;;;;;;8.73;2.75;;;26.10;93.30;;;;;;4938618;29;20047;-75
2022/06/22 11:05:02;;;;;;;8.25;2.45;;;26.00;93.90;;;;;;4940854;28;20122;-76
2022/06/22 11:08:03;;;;;;;8.50;2.30;;;26.20;93.00;;;;;;4970852;28;20410;-76
2022/06/22 11:10:44;;;;;;;8.88;2.35;;;26.10;94.20;;;;;;4875865;29;20053;-76
2022/06/22 11:13:27;;;;;;;9.20;2.53;;;26.10;95.20;;;;;;4875685;29;20057;-76
2022/06/22 11:16:06;;;;;;;9.23;2.50;;;26.30;95.20;;;;;;4875570;29;20541;-75
2022/06/22 11:18:49;;;;;;;7.82;2.60;;;26.50;94.40;;;;;;4875793;29;20103;-76
2022/06/22 11:21:15;;;;;;;10.13;3.00;;;26.70;94.90;;;;;;4904530;29;20134;-76
2022/06/22 11:24:11;;;;;;;10.10;3.80;;;26.60;95.00;;;;;;4951272;29;20465;-76
2022/06/22 11:32:57;;;;;;;10.32;3.00;;;26.90;94.00;;;;;;4893157;29;20063;-75
2022/06/22 11:35:50;;;;;;;6.88;3.40;;;26.90;95.10;;;;;;4893598;29;20098;-77
2022/06/22 11:38:30;;;;;;;11.18;3.42;;;26.80;95.10;;;;;;4893948;29;20056;-78
2022/06/22 11:41:30;;;;;;;7.30;2.97;;;26.70;95.10;;;;;;4893864;29;20059;-75
2022/06/22 11:44:18;;;;;;;8.95;2.65;;;26.60;94.80;;;;;;4908234;29;20074;-76
2022/06/22 11:46:50;;;;;;;8.48;2.90;;;26.80;94.60;;;;;;4950835;29;20039;-76
2022/06/22 11:50:06;;;;;;;5.30;2.83;;;27.10;94.60;;;;;;4950910;29;20561;-76
2022/06/22 11:52:38;;;;;;;;;;;27.10;94.30;;;;;;4875548;29;20096;-76
2022/06/22 11:55:27;;;;;;;9.18;3.05;;;27.10;93.90;;;;;;4875198;29;20483;-79
2022/06/22 11:58:21;;;;;;;11.52;3.58;;;27.20;92.80;;;;;;4875118;29;20299;-77
2022/06/22 12:01:09;;;;;;;12.00;3.15;;;27.20;92.90;;;;;;4875157;29;20060;-76
2022/06/22 12:03:57;;;;;;;8.00;3.08;;;27.30;94.40;;;;;;4884531;28;20058;-75
2022/06/22 12:07:16;;;;;;;8.00;2.78;;;27.50;92.90;;;;;;4969471;28;20133;-74
2022/06/22 12:09:51;;;;;;;10.45;3.25;;;27.50;93.60;;;;;;4912531;29;20052;-74
2022/06/22 12:12:48;;;;;;;8.60;2.88;;;27.60;94.20;;;;;;4912336;29;20052;-76
2022/06/22 12:15:38;;;;;;;10.43;3.60;;;27.70;94.30;;;;;;4906913;29;20068;-75
2022/06/22 12:21:52;;;;;;;9.77;2.88;;;27.60;93.70;;;;;;5111889;22;20048;-76
2022/06/22 12:24:51;;;;;;;10.38;2.90;;;27.80;93.60;;;;;;5101860;28;20051;-77
2022/06/22 12:27:25;;;;;;;12.82;3.80;;;27.90;92.90;;;;;;5093250;28;20124;-78
2022/06/22 12:30:05;;;;;;;8.18;3.17;;;27.80;93.10;;;;;;5094496;28;20405;-78
2022/06/22 12:32:40;;;;;;;8.77;3.40;;;27.70;92.20;;;;;;5112717;28;20130;-79
2022/06/22 12:35:24;;;;;;;7.72;3.53;;;27.80;93.00;;;;;;5112117;28;20052;-78
2022/06/22 12:38:02;;;;;;;;;;;27.80;93.00;;;;;;5112431;28;20075;-79
2022/06/22 12:41:09;;;;;;;12.98;3.45;;;28.00;92.40;;;;;;5111423;28;19970;-76
2022/06/22 12:43:56;;;;;;;8.15;3.20;;;27.70;91.10;;;;;;5111632;28;20044;-78
2022/06/22 12:47:02;;;;;;;7.25;3.65;;;27.70;91.80;;;;;;5115731;28;20077;-76
2022/06/22 12:49:44;;;;;;;8.38;3.33;;;27.70;91.60;;;;;;5084846;28;20058;-77
2022/06/22 12:52:18;;;;;;;8.77;3.63;;;27.90;93.10;;;;;;5096670;28;20107;-78
2022/06/22 12:54:50;;;;;;;12.93;3.60;;;27.70;92.80;;;;;;5115054;28;20145;-80
2022/06/22 12:57:21;;;;;;;10.50;3.60;;;27.90;93.00;;;;;;5115126;28;20139;-80
2022/06/22 12:59:51;;;;;;;7.43;3.00;;;28.00;91.90;;;;;;5115032;28;20479;-77
2022/06/22 13:02:26;;;;;;;10.60;3.58;;;28.20;93.30;;;;;;5115183;28;20035;-78
2022/06/22 13:04:58;;;;;;;9.75;3.58;;;28.30;93.20;;;;;;5096979;28;20567;-79
2022/06/22 13:07:24;;;;;;;8.50;3.30;;;28.20;92.50;;;;;;5114835;28;20052;-77
2022/06/22 13:09:50;;;;;;;8.43;3.60;;;28.40;93.00;;;;;;5096651;28;20057;-76
2022/06/22 13:12:40;;;;;;;9.48;3.20;;;28.30;92.10;;;;;;5096384;28;20518;-79
2022/06/22 13:15:38;;;;;;;6.60;2.75;;;28.30;92.80;;;;;;5096141;28;20052;-79
2022/06/22 13:18:24;;;;;;;10.93;3.38;;;28.40;92.90;;;;;;5088881;28;20079;-78
2022/06/22 13:21:17;;;;;;;8.75;3.20;;;28.30;91.60;;;;;;5114521;28;20055;-78
2022/06/22 13:24:06;;;;;;;9.15;3.15;;;28.30;92.80;;;;;;5031292;28;20057;-78
2022/06/22 13:26:58;;;;;;;11.23;3.40;;;28.40;92.30;;;;;;5045635;22;20402;-78
2022/06/22 13:29:47;;;;;;;6.85;3.05;;;28.70;92.70;;;;;;5063828;22;20054;-78
2022/06/22 13:32:13;;;;;;;10.10;3.08;;;28.60;91.70;;;;;;5075825;28;20678;-77
2022/06/22 13:34:42;;;;;;;8.43;3.05;;;28.60;91.40;;;;;;5093873;28;20394;-83
2022/06/22 13:37:23;;;;;;;7.90;2.60;;;28.80;91.90;;;;;;5093935;28;20063;-77
2022/06/22 13:40:26;;;;;;;11.05;3.30;;;28.70;91.60;;;;;;5034247;28;20096;-79
2022/06/22 13:43:18;;;;;;;7.97;2.97;;;28.70;91.00;;;;;;5051042;28;20045;-77
2022/06/22 13:46:06;;;;;;;9.32;2.97;;;28.70;91.70;;;;;;5050987;28;20546;-78
2022/06/22 13:48:31;;;;;;;8.57;3.13;;;28.90;91.20;;;;;;5051072;28;20534;-75
2022/06/22 13:51:28;;;;;;;7.20;3.28;;;28.90;91.00;;;;;;5051101;28;20049;-76
2022/06/22 13:54:05;;;;;;;8.85;3.10;;;28.90;90.70;;;;;;5050791;28;20459;-76
2022/06/22 13:56:42;;;;;;;8.38;3.22;;;28.80;89.10;;;;;;5050117;28;20041;-78
2022/06/22 13:59:37;;;;;;;8.20;2.97;;;28.80;90.20;;;;;;5050759;28;20404;-76
2022/06/22 14:02:13;;;;;;;13.55;3.90;;;28.60;88.90;;;;;;5050957;28;20053;-77
2022/06/22 14:05:19;;;;;;;10.30;4.40;;;28.40;91.90;;;;;;5050512;28;20052;-75
2022/06/22 14:08:10;;;;;;;9.70;3.85;;;28.30;92.20;;;;;;5050693;28;20550;-78
2022/06/22 14:11:16;;;;;;;12.70;4.38;;;28.20;92.70;;;;;;5066847;28;20101;-77
2022/06/22 14:14:06;;;;;;;10.90;4.00;;;28.20;92.60;;;;;;5093385;28;20048;-77
2022/06/22 14:16:47;;;;;;;9.18;3.97;;;28.30;92.80;;;;;;5093415;28;20052;-78
2022/06/22 14:19:21;;;;;;;13.48;4.50;;;28.20;92.60;;;;;;5075004;28;20137;-75